Time;durP1;ratioP1;P1;durP2;ratioP2;P2;SDS_P1;SDS_P2;PMS_P1;PMS_P2;Temp;Humidity;BMP_temperature;BMP_pressure;BME280_temperature;BME280_humidity;BME280_pressure;Samples;Min_cycle;Max_cycle;Signal;HPM_P1;HPM_P2
2022/03/17 00:01:14;;;;;;;22.37;12.23;;;2.50;99.90;;;0.88;85.82;101220.28;10297971;28;98409;-79
2022/03/17 00:06:17;;;;;;;21.60;10.90;;;2.60;99.90;;;0.84;85.36;101224.88;10311045;28;96820;-79
2022/03/17 00:11:20;;;;;;;21.60;12.03;;;2.60;99.90;;;0.84;85.39;101224.00;10290843;28;96511;-79
2022/03/17 00:16:23;;;;;;;19.70;10.77;;;2.70;99.90;;;0.88;85.48;101221.13;10304283;28;96917;-79
2022/03/17 00:21:26;;;;;;;21.67;11.97;;;2.70;99.90;;;0.95;85.56;101209.41;10290173;28;97076;-79
2022/03/17 00:26:29;;;;;;;23.83;12.67;;;2.70;99.90;;;1.01;85.44;101208.25;10296137;28;96504;-79
2022/03/17 00:31:33;;;;;;;39.37;16.30;;;2.80;99.90;;;1.07;85.30;101205.28;10309646;28;96577;-79
2022/03/17 00:36:36;;;;;;;36.23;16.03;;;2.80;99.90;;;1.16;84.96;101209.22;10298769;28;97627;-79
2022/03/17 00:41:40;;;;;;;23.63;12.37;;;2.90;99.90;;;1.21;84.89;101208.03;10295944;28;96483;-79
2022/03/17 00:46:43;;;;;;;26.43;13.13;;;3.00;99.90;;;1.33;84.76;101209.13;10320024;28;96969;-79
2022/03/17 00:51:46;;;;;;;45.27;19.27;;;3.10;99.90;;;1.46;84.15;101209.31;10321558;28;96561;-80
2022/03/17 00:56:50;;;;;;;37.20;17.33;;;3.20;99.90;;;1.55;83.41;101211.41;10301161;28;96607;-80
2022/03/17 01:01:53;;;;;;;24.83;13.40;;;3.30;99.90;;;1.61;82.61;101225.00;10310692;28;98141;-78
2022/03/17 01:06:56;;;;;;;26.47;13.67;;;3.30;99.90;;;1.66;82.23;101219.50;10308979;28;96481;-79
2022/03/17 01:12:00;;;;;;;22.47;12.90;;;3.40;99.90;;;1.66;81.77;101214.25;10304086;28;96627;-79
2022/03/17 01:17:03;;;;;;;18.60;11.07;;;3.40;99.90;;;1.74;81.68;101227.81;10294775;28;96536;-79
2022/03/17 01:22:07;;;;;;;20.70;11.47;;;3.50;99.90;;;1.82;81.42;101230.81;10314773;28;97691;-79
2022/03/17 01:27:10;;;;;;;21.47;12.63;;;3.60;99.90;;;2.00;80.77;101246.44;10331703;28;96543;-80
2022/03/17 01:32:14;;;;;;;22.37;11.07;;;3.70;99.90;;;2.02;79.72;101237.53;10293311;28;96645;-80
2022/03/17 01:37:17;;;;;;;21.57;13.03;;;3.80;99.90;;;1.99;79.57;101234.28;10293911;28;96983;-80
2022/03/17 01:42:20;;;;;;;21.47;12.67;;;3.70;99.90;;;1.96;79.40;101239.69;10283468;28;96554;-80
2022/03/17 01:47:31;;;;;;;25.00;13.73;;;3.80;99.90;;;1.94;78.45;101244.19;10315698;28;96648;-80
2022/03/17 01:52:35;;;;;;;26.13;13.07;;;3.80;99.90;;;1.88;78.74;101242.75;10330891;28;96924;-79
2022/03/17 01:57:40;;;;;;;23.10;13.27;;;3.70;99.90;;;1.78;78.39;101249.44;10290296;28;96686;-79
2022/03/17 02:02:47;;;;;;;25.70;12.80;;;3.60;99.90;;;1.67;78.73;101247.38;10311670;28;96877;-79
2022/03/17 02:07:53;;;;;;;25.03;13.73;;;3.60;99.90;;;1.60;78.45;101246.88;10296239;28;96522;-79
2022/03/17 02:13:11;;;;;;;21.37;11.93;;;3.50;99.90;;;1.55;78.68;101253.31;10304653;28;96937;-80
2022/03/17 02:18:16;;;;;;;25.57;12.73;;;3.40;99.90;;;1.53;78.92;101266.50;10242783;28;96585;-80
2022/03/17 02:28:41;;;;;;;24.77;13.63;;;3.30;99.90;;;1.37;78.93;101265.63;10247216;28;96523;-79
2022/03/17 02:33:44;;;;;;;26.33;13.63;;;3.20;99.90;;;1.36;79.25;101268.34;10249932;28;97032;-80
2022/03/17 02:38:47;;;;;;;22.60;12.77;;;3.20;99.90;;;1.42;79.78;101270.63;10227297;28;96522;-79
2022/03/17 02:43:52;;;;;;;25.43;12.77;;;3.20;99.90;;;1.50;79.07;101276.28;10253174;28;96589;-79
2022/03/17 02:48:55;;;;;;;25.30;13.97;;;3.30;99.90;;;1.56;78.95;101283.81;10247757;28;96703;-79
2022/03/17 02:53:58;;;;;;;23.83;13.37;;;3.30;99.90;;;1.52;78.12;101290.16;10251510;28;96792;-80
2022/03/17 02:59:02;;;;;;;22.70;13.27;;;3.30;99.90;;;1.42;78.16;101292.44;10246321;28;98133;-79
2022/03/17 03:04:04;;;;;;;22.47;12.60;;;3.30;99.90;;;1.34;77.96;101303.31;10243868;28;96573;-80
2022/03/17 03:09:07;;;;;;;24.90;13.17;;;3.20;99.90;;;1.26;78.18;101309.88;10264621;28;96514;-80
2022/03/17 03:14:10;;;;;;;24.03;12.73;;;3.20;99.90;;;1.19;78.02;101319.84;10245921;28;96698;-79
2022/03/17 03:19:13;;;;;;;28.27;14.40;;;3.10;99.90;;;1.13;78.47;101324.53;10234437;28;96613;-80
2022/03/17 03:24:16;;;;;;;27.10;14.63;;;3.00;99.90;;;1.09;78.45;101333.50;10254019;28;96480;-80
2022/03/17 03:29:22;;;;;;;23.70;12.73;;;3.00;99.90;;;1.06;78.03;101334.50;10241917;28;96605;-79
2022/03/17 03:34:27;;;;;;;28.03;13.83;;;3.00;99.90;;;1.04;78.00;101333.75;10260608;28;97305;-79
2022/03/17 03:39:30;;;;;;;26.27;13.40;;;2.90;99.90;;;1.00;78.13;101342.66;10251424;28;96541;-79
2022/03/17 03:44:34;;;;;;;25.80;13.87;;;2.90;99.90;;;0.92;77.62;101336.97;10250662;28;98215;-79
2022/03/17 03:49:39;;;;;;;26.43;13.07;;;2.80;99.90;;;0.82;77.72;101336.59;10274350;28;97503;-79
2022/03/17 03:54:42;;;;;;;23.87;12.77;;;2.70;99.90;;;0.74;77.58;101344.84;10245515;28;97593;-79
2022/03/17 03:59:45;;;;;;;28.00;13.00;;;2.70;99.90;;;0.64;77.69;101350.59;10254252;28;96674;-80
2022/03/17 04:04:48;;;;;;;29.17;13.67;;;2.60;99.90;;;0.49;77.79;101344.38;10243473;28;98361;-79
2022/03/17 04:09:50;;;;;;;26.47;13.43;;;2.50;99.90;;;0.35;78.47;101341.56;10236197;28;96484;-79
2022/03/17 04:14:53;;;;;;;29.53;13.13;;;2.40;99.90;;;0.26;78.79;101325.41;10244598;28;96577;-80
2022/03/17 04:19:56;;;;;;;25.73;13.03;;;2.20;99.90;;;0.17;79.15;101323.22;10252746;28;98135;-79
2022/03/17 04:24:59;;;;;;;38.80;17.27;;;2.10;99.90;;;0.09;78.89;101335.00;10248030;28;97219;-79
2022/03/17 04:30:03;;;;;;;41.50;16.93;;;2.00;99.90;;;-0.05;79.59;101320.81;10242909;28;96839;-79
2022/03/17 04:35:07;;;;;;;26.57;15.20;;;1.90;99.90;;;-0.05;80.82;101331.28;10234012;28;96700;-79
2022/03/17 04:40:11;;;;;;;30.63;14.20;;;1.90;99.90;;;-0.07;81.41;101345.31;10223294;28;96538;-80
2022/03/17 04:45:14;;;;;;;24.13;12.50;;;1.80;99.90;;;-0.14;81.72;101370.88;10259003;28;96664;-80
2022/03/17 04:50:17;;;;;;;23.23;13.43;;;1.80;99.90;;;-0.16;82.50;101377.94;10273083;28;97178;-80
2022/03/17 04:55:20;;;;;;;39.57;18.77;;;1.70;99.90;;;-0.15;82.62;101384.00;10216614;28;96480;-79
2022/03/17 05:00:24;;;;;;;32.47;16.73;;;1.70;99.90;;;-0.14;83.07;101386.56;10250758;28;98231;-80
2022/03/17 05:05:28;;;;;;;37.37;17.53;;;1.70;99.90;;;-0.13;83.34;101374.34;10248124;28;96669;-80
2022/03/17 05:10:31;;;;;;;36.87;15.27;;;1.70;99.90;;;-0.17;82.93;101391.09;10263405;28;96595;-80
2022/03/17 05:15:38;;;;;;;36.67;16.20;;;1.70;99.90;;;-0.25;82.73;101399.25;10254156;28;97711;-79
2022/03/17 05:20:42;;;;;;;34.57;17.43;;;1.70;99.90;;;-0.28;82.57;101408.09;10275383;28;96525;-80
2022/03/17 05:25:47;;;;;;;25.47;14.83;;;1.60;99.90;;;-0.27;83.11;101415.00;10251339;28;96576;-80
2022/03/17 05:30:54;;;;;;;36.20;17.73;;;1.70;99.90;;;-0.10;83.73;101414.25;10248652;28;97005;-79
2022/03/17 05:35:57;;;;;;;27.00;14.67;;;1.70;99.90;;;0.07;83.33;101429.16;10268998;28;97813;-80
2022/03/17 05:41:00;;;;;;;37.07;17.70;;;1.90;99.90;;;0.33;83.47;101437.53;10253129;28;97052;-80
2022/03/17 05:46:03;;;;;;;26.83;15.27;;;2.10;99.90;;;0.58;83.14;101447.69;10243011;28;96513;-80
2022/03/17 05:51:06;;;;;;;32.00;15.67;;;2.20;99.90;;;0.82;82.39;101443.03;10248078;28;96522;-80
2022/03/17 05:56:09;;;;;;;28.57;14.80;;;2.40;99.90;;;1.06;81.77;101460.16;10238497;28;96408;-81
2022/03/17 06:01:12;;;;;;;32.10;15.80;;;2.70;99.90;;;1.36;81.01;101464.78;10238084;28;97472;-79
2022/03/17 06:06:16;;;;;;;31.57;16.13;;;2.90;99.90;;;1.65;80.14;101474.59;10257318;28;96446;-79
2022/03/17 06:11:19;;;;;;;34.13;16.23;;;3.20;99.90;;;1.88;79.29;101476.88;10253030;28;96613;-80
2022/03/17 06:16:23;;;;;;;27.77;15.93;;;3.50;99.90;;;2.23;77.73;101475.94;10313135;28;98153;-79
2022/03/17 06:21:26;;;;;;;25.73;13.70;;;3.70;99.90;;;2.51;76.09;101486.59;10290103;28;96415;-80
2022/03/17 06:26:29;;;;;;;26.80;15.70;;;4.00;99.90;;;2.84;74.20;101493.53;10315049;28;96459;-81
2022/03/17 06:31:36;;;;;;;26.50;14.97;;;4.30;99.90;;;3.08;73.43;101497.38;10288207;28;96924;-80
2022/03/17 06:36:39;;;;;;;33.23;15.93;;;4.50;99.90;;;3.37;72.66;101502.72;10315250;28;96571;-81
2022/03/17 06:41:42;;;;;;;29.27;15.07;;;4.80;99.90;;;3.69;70.78;101495.56;10297732;28;97892;-81
2022/03/17 06:46:45;;;;;;;31.50;17.33;;;5.10;99.90;;;4.03;69.14;101502.25;10320064;28;96905;-81
2022/03/17 06:51:48;;;;;;;29.90;17.03;;;5.40;99.90;;;4.30;67.94;101511.06;10294449;28;96501;-80
2022/03/17 06:56:50;;;;;;;35.73;17.33;;;5.70;99.90;;;4.55;66.99;101518.25;10307739;28;96559;-81
2022/03/17 07:01:54;;;;;;;25.17;14.90;;;5.90;99.90;;;4.75;65.00;101524.91;10309312;28;96605;-81
2022/03/17 07:06:57;;;;;;;26.20;15.07;;;6.20;99.90;;;4.96;65.19;101535.84;10324143;28;96569;-80
2022/03/17 07:12:00;;;;;;;25.77;14.43;;;6.40;99.30;;;5.18;64.28;101545.00;10336081;28;96643;-80
2022/03/17 07:17:04;;;;;;;29.87;16.13;;;6.60;98.90;;;5.35;63.60;101544.75;10303248;28;96896;-81
2022/03/17 07:22:07;;;;;;;30.50;17.30;;;6.80;98.10;;;5.52;62.78;101548.91;10317189;28;97518;-81
2022/03/17 07:27:10;;;;;;;32.70;16.73;;;7.00;97.10;;;5.71;62.46;101543.22;10293165;28;96923;-81
2022/03/17 07:32:13;;;;;;;27.73;15.67;;;7.20;97.00;;;5.88;60.25;101538.50;10336471;28;96835;-81
2022/03/17 07:37:17;;;;;;;30.23;15.80;;;7.30;95.40;;;6.09;60.36;101538.84;10297753;28;96652;-81
2022/03/17 07:42:20;;;;;;;29.63;14.80;;;7.50;94.60;;;6.35;60.50;101538.81;10319849;28;96586;-80
2022/03/17 07:47:23;;;;;;;29.77;15.87;;;7.70;93.90;;;6.55;58.97;101532.13;10310314;28;97037;-81
2022/03/17 07:52:26;;;;;;;30.53;17.53;;;8.00;92.50;;;6.74;58.22;101537.78;10318298;28;96512;-80
2022/03/17 07:57:29;;;;;;;29.20;17.23;;;8.20;91.80;;;6.86;58.06;101551.91;10290770;28;96599;-81
2022/03/17 08:02:33;;;;;;;32.67;18.57;;;8.30;90.70;;;7.05;57.93;101552.25;10299067;28;96599;-81
2022/03/17 08:07:36;;;;;;;27.60;16.30;;;8.50;90.20;;;7.33;57.67;101547.59;10295133;28;96571;-81
2022/03/17 08:12:39;;;;;;;28.27;17.00;;;8.70;90.30;;;7.96;56.28;101535.72;10313182;28;96474;-80
2022/03/17 08:17:41;;;;;;;28.10;16.87;;;9.00;89.50;;;8.53;54.42;101534.81;10306411;28;98332;-80
2022/03/17 08:22:44;;;;;;;26.47;16.23;;;9.40;86.90;;;8.79;53.74;101538.84;10298158;28;96670;-80
2022/03/17 08:27:50;;;;;;;27.47;17.33;;;9.70;84.90;;;9.11;51.79;101538.88;10287504;28;96700;-80
2022/03/17 08:32:53;;;;;;;27.37;16.53;;;10.00;81.40;;;9.34;50.67;101539.66;10310847;28;98319;-81
2022/03/17 08:37:57;;;;;;;27.97;15.73;;;10.30;77.50;;;9.48;50.80;101538.53;10296642;28;97906;-81
2022/03/17 08:43:00;;;;;;;27.13;16.27;;;10.50;77.50;;;9.85;50.63;101551.34;10319654;28;96760;-80
2022/03/17 08:53:24;;;;;;;25.30;15.90;;;11.10;73.70;;;10.91;46.98;101535.00;10324245;28;96623;-80
2022/03/17 08:58:29;;;;;;;25.13;14.87;;;11.50;74.30;;;11.51;47.04;101538.38;10306205;28;96706;-80
2022/03/17 09:03:33;;;;;;;26.60;16.43;;;11.90;74.00;;;11.67;46.27;101527.16;10349906;28;96580;-80
2022/03/17 09:08:36;;;;;;;26.47;16.13;;;12.30;70.10;;;12.05;43.69;101536.91;10336361;28;96714;-81
2022/03/17 09:13:39;;;;;;;25.17;15.53;;;12.70;68.10;;;12.30;44.09;101522.13;10307057;28;96700;-81
2022/03/17 09:18:42;;;;;;;27.30;17.73;;;13.00;65.40;;;12.73;43.85;101520.66;10259958;28;96726;-81
2022/03/17 09:23:46;;;;;;;24.58;16.35;;;13.40;65.60;;;13.11;42.65;101541.72;10275302;28;96745;-80
2022/03/17 09:28:51;;;;;;;29.98;17.65;;;13.80;63.90;;;13.36;41.25;101536.63;10241902;28;96437;-82
2022/03/17 09:33:55;;;;;;;28.60;17.48;;;14.10;62.40;;;13.39;42.00;101542.53;10255114;28;96558;-81
2022/03/17 09:44:19;;;;;;;25.38;17.30;;;14.40;61.60;;;13.29;42.27;101532.91;10272602;28;96648;-81
2022/03/17 09:49:24;;;;;;;27.10;17.10;;;14.50;60.30;;;13.27;41.18;101532.22;10264656;28;96586;-81
2022/03/17 09:54:26;;;;;;;26.67;16.65;;;14.60;57.80;;;13.30;41.41;101529.25;10258871;28;97788;-81
2022/03/17 09:59:30;;;;;;;26.10;17.08;;;14.70;57.90;;;13.29;40.50;101530.25;10277522;28;96656;-80
2022/03/17 10:04:39;;;;;;;25.60;17.50;;;14.70;56.40;;;13.46;39.76;101536.56;10277303;28;96568;-81
2022/03/17 10:09:43;;;;;;;31.35;17.75;;;14.70;55.70;;;14.00;39.32;101530.13;10266944;28;98110;-81
2022/03/17 10:14:49;;;;;;;28.70;19.67;;;15.10;55.90;;;14.08;36.53;101527.47;10257874;28;99536;-81
2022/03/17 10:19:52;;;;;;;29.27;18.67;;;15.20;52.90;;;13.80;37.59;101531.34;10257349;28;97632;-81
2022/03/17 10:24:55;;;;;;;29.15;18.40;;;15.00;52.40;;;13.85;36.63;101534.34;10267216;28;96535;-81
2022/03/17 10:30:03;;;;;;;28.02;19.25;;;15.10;51.70;;;13.86;36.58;101530.69;10281386;28;96485;-84
2022/03/17 10:35:08;;;;;;;30.70;18.77;;;15.10;51.60;;;14.22;36.00;101519.88;10251123;28;96620;-80
2022/03/17 10:40:11;;;;;;;28.45;18.73;;;15.40;51.40;;;14.54;34.68;101511.19;10276628;28;96453;-81
2022/03/17 10:45:16;;;;;;;32.58;20.13;;;15.60;50.90;;;14.44;34.63;101513.94;10269926;28;96618;-80
2022/03/17 10:50:20;;;;;;;27.42;19.40;;;15.70;49.10;;;14.41;35.31;101522.31;10246848;28;96624;-80
2022/03/17 10:55:24;;;;;;;30.33;19.20;;;15.60;49.90;;;14.64;34.89;101512.75;10266022;28;96981;-80
2022/03/17 11:00:28;;;;;;;28.65;18.90;;;15.80;49.20;;;14.83;35.53;101519.66;10268060;28;97183;-79
2022/03/17 11:05:32;;;;;;;27.95;18.65;;;16.00;49.40;;;15.13;34.49;101520.88;10241406;28;96605;-80
2022/03/17 11:10:38;;;;;;;27.80;18.85;;;16.30;48.90;;;15.10;34.83;101526.53;10257859;28;96649;-79
2022/03/17 11:15:46;;;;;;;29.15;19.42;;;16.30;48.80;;;15.21;34.64;101525.41;10270735;28;96507;-80
2022/03/17 11:20:49;;;;;;;29.30;20.15;;;16.40;48.60;;;14.98;33.82;101527.84;10258637;28;96731;-78
2022/03/17 11:25:55;;;;;;;29.83;19.90;;;16.30;48.00;;;14.80;34.14;101527.97;10263154;28;97018;-79
2022/03/17 11:31:07;;;;;;;26.90;18.23;;;16.20;47.70;;;14.76;34.76;101531.19;10264581;28;96696;-79
2022/03/17 11:36:10;;;;;;;28.98;18.45;;;16.20;48.10;;;14.49;34.64;101532.22;10273117;28;96593;-79
2022/03/17 11:41:17;;;;;;;31.98;19.02;;;16.00;47.90;;;14.37;35.14;101535.16;10295288;28;96483;-80
2022/03/17 11:46:23;;;;;;;26.85;17.95;;;15.90;48.20;;;14.26;34.60;101531.91;10242676;28;97005;-80
2022/03/17 11:51:26;;;;;;;30.17;17.85;;;15.80;47.90;;;14.12;34.80;101534.19;10243119;28;96878;-78
2022/03/17 11:56:45;;;;;;;26.15;17.63;;;15.70;47.80;;;14.28;35.24;101524.59;10290366;28;96496;-80
2022/03/17 12:01:49;;;;;;;30.55;18.60;;;15.70;48.30;;;14.29;35.01;101523.59;10271225;28;96348;-80
2022/03/17 12:06:55;;;;;;;24.75;16.35;;;15.70;47.90;;;14.10;34.30;101522.84;10249983;28;96647;-81
2022/03/17 12:11:58;;;;;;;25.58;16.90;;;15.60;46.80;;;13.95;34.98;101524.41;10254233;28;96863;-81
2022/03/17 12:17:05;;;;;;;26.17;16.50;;;15.40;47.50;;;14.02;34.96;101514.75;10237576;28;96588;-80
2022/03/17 12:22:09;;;;;;;27.27;17.30;;;15.40;47.80;;;13.96;34.44;101514.53;10259254;28;96516;-80
2022/03/17 12:27:26;;;;;;;25.95;16.70;;;15.50;47.60;;;14.08;34.62;101516.78;10247125;28;97415;-81
2022/03/17 12:32:40;;;;;;;25.50;16.70;;;15.40;47.40;;;14.14;34.45;101512.66;10269527;28;96636;-81
2022/03/17 12:37:44;;;;;;;28.08;16.98;;;15.50;47.40;;;14.06;34.41;101515.28;10267365;28;96678;-81
2022/03/17 12:42:53;;;;;;;25.63;17.13;;;15.50;47.10;;;13.98;34.38;101516.09;10277169;28;97913;-79
2022/03/17 12:47:56;;;;;;;27.27;17.33;;;15.40;47.10;;;13.95;34.60;101513.72;10258085;28;97655;-80
2022/03/17 12:53:00;;;;;;;28.05;16.58;;;15.40;47.00;;;13.89;34.64;101519.69;10251765;28;98362;-80
2022/03/17 12:58:05;;;;;;;27.55;17.40;;;15.40;47.30;;;13.87;34.65;101506.50;10258573;28;96932;-81
2022/03/17 13:03:07;;;;;;;25.60;16.33;;;15.30;47.30;;;13.84;34.49;101513.97;10259840;28;97624;-81
2022/03/17 13:08:15;;;;;;;31.75;19.85;;;15.30;47.30;;;13.70;35.02;101525.25;10247553;28;96689;-80
2022/03/17 13:18:47;;;;;;;27.20;16.13;;;15.10;46.90;;;13.41;34.83;101520.16;10268581;28;96597;-80
2022/03/17 13:23:51;;;;;;;33.28;17.73;;;14.90;46.90;;;13.34;35.41;101509.25;10252627;28;96715;-80
2022/03/17 13:29:04;;;;;;;27.42;18.08;;;14.90;47.40;;;13.26;35.76;101512.72;10257049;28;96711;-80
2022/03/17 13:34:07;;;;;;;24.17;15.75;;;14.80;47.60;;;13.29;35.24;101522.22;10241828;28;98111;-81
2022/03/17 13:39:11;;;;;;;25.40;16.35;;;14.80;47.50;;;13.21;34.97;101512.31;10240400;28;96501;-80
2022/03/17 13:44:14;;;;;;;26.70;16.60;;;14.70;47.20;;;13.17;35.43;101512.75;10246879;28;96480;-80
2022/03/17 13:49:26;;;;;;;30.10;17.85;;;14.70;47.70;;;13.02;35.57;101518.63;10280873;28;96916;-80
2022/03/17 13:54:38;;;;;;;26.17;17.00;;;14.60;47.80;;;12.76;36.00;101517.66;10245410;28;96587;-80
2022/03/17 13:59:42;;;;;;;25.33;16.00;;;14.30;47.70;;;12.67;36.43;101518.56;10256112;28;96621;-80
2022/03/17 14:04:56;;;;;;;25.13;16.13;;;14.20;48.10;;;12.59;36.75;101512.16;10244706;28;96654;-80
2022/03/17 14:09:59;;;;;;;24.48;14.25;;;14.10;48.50;;;12.49;36.42;101514.03;10238340;28;96666;-80
2022/03/17 14:15:02;;;;;;;28.87;16.63;;;13.90;48.10;;;12.38;36.87;101516.88;10245568;28;96580;-80
2022/03/17 14:20:06;;;;;;;27.93;16.50;;;13.90;48.80;;;12.31;37.62;101516.66;10251291;28;96647;-79
2022/03/17 14:25:09;;;;;;;24.93;16.63;;;13.70;49.20;;;12.28;37.33;101510.75;10267200;28;96436;-80
2022/03/17 14:30:12;;;;;;;27.67;16.43;;;13.70;49.10;;;12.20;37.54;101508.00;10276022;28;96563;-80
2022/03/17 14:35:15;;;;;;;25.93;15.43;;;13.70;49.10;;;12.09;38.18;101505.50;10260413;28;96659;-80
2022/03/17 14:40:18;;;;;;;27.67;16.60;;;13.60;49.50;;;11.95;38.71;101507.66;10250208;28;96574;-79
2022/03/17 14:45:22;;;;;;;23.40;15.03;;;13.50;49.90;;;11.88;38.83;101517.22;10268387;28;96554;-79
2022/03/17 14:50:25;;;;;;;24.47;15.67;;;13.50;50.20;;;11.75;39.42;101517.50;10244564;28;98352;-79
2022/03/17 14:55:28;;;;;;;21.70;15.53;;;13.30;50.50;;;11.64;39.46;101522.97;10281221;28;96611;-80
2022/03/17 15:00:31;;;;;;;29.87;16.73;;;13.20;50.80;;;11.60;40.10;101526.91;10262823;28;96448;-80
2022/03/17 15:05:36;;;;;;;23.53;15.87;;;13.10;51.30;;;11.57;40.31;101531.66;10256456;28;96619;-80
2022/03/17 15:10:40;;;;;;;23.27;15.10;;;13.10;51.50;;;11.48;40.93;101528.03;10235842;28;96527;-79
2022/03/17 15:15:49;;;;;;;28.53;16.53;;;13.00;51.80;;;11.38;40.88;101530.69;10221422;28;96574;-80
2022/03/17 15:20:52;;;;;;;26.10;15.73;;;12.90;52.00;;;11.21;41.63;101532.22;10236227;28;97844;-79
2022/03/17 15:25:56;;;;;;;25.93;16.23;;;12.80;52.40;;;11.09;42.40;101543.97;10246616;28;96713;-79
2022/03/17 15:30:59;;;;;;;26.73;15.77;;;12.70;53.00;;;10.94;43.41;101542.72;10218340;28;96752;-80
2022/03/17 15:36:02;;;;;;;26.67;15.87;;;12.50;53.90;;;10.79;43.95;101542.25;10218560;28;97434;-79
2022/03/17 15:41:05;;;;;;;24.73;15.60;;;12.40;54.30;;;10.62;44.27;101545.59;10223157;28;96834;-79
2022/03/17 15:46:08;;;;;;;25.47;14.90;;;12.20;55.10;;;10.44;44.89;101556.03;10262238;28;96560;-79
2022/03/17 15:51:11;;;;;;;26.23;15.77;;;12.10;55.20;;;10.27;45.69;101570.75;10256915;28;96774;-78
2022/03/17 15:56:14;;;;;;;23.90;15.20;;;11.90;56.00;;;10.13;46.21;101574.56;10251425;28;96650;-79
2022/03/17 16:01:20;;;;;;;23.53;14.67;;;11.80;56.40;;;10.00;46.76;101581.88;10262727;28;96544;-79
2022/03/17 16:06:23;;;;;;;22.33;13.73;;;11.60;56.90;;;9.88;47.00;101591.72;10251848;28;96422;-79
2022/03/17 16:16:48;;;;;;;20.73;12.20;;;11.40;57.60;;;9.62;48.09;101606.34;10258635;28;96672;-79
2022/03/17 16:21:56;;;;;;;26.60;15.63;;;11.30;58.30;;;9.48;48.79;101618.13;10233802;28;96546;-79
2022/03/17 16:26:59;;;;;;;27.93;16.37;;;11.10;58.20;;;9.31;50.55;101611.53;10249969;28;96513;-79
2022/03/17 16:32:02;;;;;;;29.97;17.03;;;11.00;59.60;;;9.19;52.00;101619.66;10231344;28;96567;-80
2022/03/17 16:37:08;;;;;;;27.70;16.97;;;10.90;60.80;;;9.04;53.25;101619.91;10288561;28;96554;-80
2022/03/17 16:42:13;;;;;;;33.97;20.00;;;10.70;61.40;;;8.90;54.32;101627.28;10232477;28;96617;-80
2022/03/17 16:47:16;;;;;;;43.93;21.47;;;10.60;62.30;;;8.73;55.85;101647.16;10262802;28;96486;-80
2022/03/17 16:52:21;;;;;;;33.57;19.60;;;10.40;63.60;;;8.53;56.29;101657.53;10243134;28;96451;-79
2022/03/17 16:57:24;;;;;;;31.27;18.60;;;10.30;64.40;;;8.32;57.24;101665.28;10216705;28;98650;-81
2022/03/17 17:02:27;;;;;;;33.03;18.37;;;10.10;64.90;;;8.12;58.18;101670.41;10233330;28;96520;-79
2022/03/17 17:07:30;;;;;;;29.60;17.13;;;9.90;67.00;;;7.91;59.43;101673.69;10259054;28;96532;-78
2022/03/17 17:12:34;;;;;;;27.30;15.33;;;9.70;68.00;;;7.72;59.88;101670.75;10262021;28;96451;-79
2022/03/17 17:17:37;;;;;;;29.53;16.40;;;9.50;68.90;;;7.50;60.49;101671.50;10305371;28;96508;-79
2022/03/17 17:33:25;;;;;;;32.60;17.38;;;8.90;72.30;;;6.73;62.50;101678.75;10315970;28;96640;-79
2022/03/17 17:38:28;;;;;;;30.90;17.37;;;8.70;73.60;;;6.53;64.08;101695.97;10322150;28;96696;-79
2022/03/17 17:43:34;;;;;;;42.07;23.23;;;8.50;73.30;;;6.36;64.29;101698.94;10330118;28;96557;-79
2022/03/17 17:48:38;;;;;;;32.33;18.33;;;8.30;75.70;;;6.21;64.53;101703.44;10305760;28;96542;-79
2022/03/17 17:53:40;;;;;;;36.57;20.17;;;8.10;76.90;;;6.06;65.43;101707.13;10323146;28;96903;-79
2022/03/17 17:58:44;;;;;;;27.00;16.20;;;8.00;79.90;;;5.91;66.46;101708.97;10334940;28;96412;-79
2022/03/17 18:03:46;;;;;;;30.67;16.90;;;7.80;83.50;;;5.77;66.52;101717.75;10316670;28;96427;-79
2022/03/17 18:08:49;;;;;;;31.00;16.70;;;7.70;83.60;;;5.58;66.25;101727.81;10293406;28;96558;-79
2022/03/17 18:13:52;;;;;;;30.80;16.30;;;7.50;85.00;;;5.40;66.27;101735.09;10284714;28;96605;-79
2022/03/17 18:18:55;;;;;;;31.13;15.53;;;7.40;85.10;;;5.21;66.55;101751.19;10263198;28;96547;-79
2022/03/17 18:23:59;;;;;;;26.20;14.27;;;7.20;86.80;;;5.02;67.34;101754.13;10257242;28;96556;-80
2022/03/17 18:29:03;;;;;;;27.30;14.83;;;7.00;88.20;;;4.88;67.73;101771.72;10277891;28;97330;-80
2022/03/17 18:34:06;;;;;;;27.77;16.57;;;6.80;89.10;;;4.71;68.49;101770.09;10239270;28;96505;-78
2022/03/17 18:39:09;;;;;;;25.80;13.93;;;6.70;90.40;;;4.54;68.52;101777.19;10236288;28;96494;-80
2022/03/17 18:44:12;;;;;;;43.57;19.03;;;6.50;90.70;;;4.40;69.40;101787.72;10239805;28;96560;-77
2022/03/17 18:49:14;;;;;;;55.80;19.60;;;6.40;92.30;;;4.29;70.36;101787.47;10255385;28;96813;-78
2022/03/17 18:54:23;;;;;;;56.60;24.03;;;6.30;93.80;;;4.18;71.05;101789.88;10243054;28;98007;-79
2022/03/17 18:59:27;;;;;;;75.97;31.57;;;6.10;95.30;;;4.10;71.52;101792.09;10240828;28;96885;-78
2022/03/17 19:04:30;;;;;;;66.77;28.33;;;6.00;95.30;;;3.98;70.92;101797.13;10242175;28;96723;-78
2022/03/17 19:09:33;;;;;;;41.07;19.80;;;5.90;95.10;;;3.88;71.61;101802.97;10234486;28;96557;-78
2022/03/17 19:14:37;;;;;;;41.70;21.17;;;5.80;96.20;;;3.78;72.65;101807.03;10240946;28;96639;-78
2022/03/17 19:19:42;;;;;;;31.77;18.13;;;5.80;97.70;;;3.69;73.48;101819.78;10258878;28;96519;-78
2022/03/17 19:24:44;;;;;;;46.80;22.00;;;5.60;98.80;;;3.57;73.13;101823.06;10218965;28;96464;-78
2022/03/17 19:29:48;;;;;;;33.27;18.47;;;5.50;98.10;;;3.47;73.40;101824.50;10236850;28;96868;-77
2022/03/17 19:34:52;;;;;;;43.60;23.00;;;5.40;98.30;;;3.38;73.71;101835.50;10252880;28;96670;-77
2022/03/17 19:39:57;;;;;;;35.87;20.67;;;5.30;98.70;;;3.35;74.39;101844.38;10255179;28;96883;-77
2022/03/17 19:45:00;;;;;;;32.33;18.07;;;5.30;99.90;;;3.28;75.03;101845.66;10260031;28;96588;-77
2022/03/17 19:55:30;;;;;;;35.67;19.23;;;5.10;99.90;;;3.14;75.40;101853.41;10257141;28;96482;-77
2022/03/17 20:00:34;;;;;;;36.40;19.80;;;5.10;99.90;;;3.05;75.64;101859.13;10234232;28;98103;-79
2022/03/17 20:05:37;;;;;;;41.43;19.60;;;5.00;99.90;;;2.97;75.98;101866.56;10251438;28;96618;-78
2022/03/17 20:16:10;;;;;;;36.63;19.07;;;4.80;99.90;;;2.82;76.72;101876.03;10260314;28;97221;-80
2022/03/17 20:21:15;;;;;;;34.37;19.10;;;4.80;99.90;;;2.78;76.94;101880.63;10219727;28;96473;-80
2022/03/17 20:26:21;;;;;;;44.67;22.97;;;4.70;99.90;;;2.72;77.48;101894.06;10257466;28;96641;-80
2022/03/17 20:31:24;;;;;;;40.97;22.33;;;4.60;99.90;;;2.64;77.51;101886.56;10255765;28;96609;-78
2022/03/17 20:36:27;;;;;;;35.43;19.27;;;4.60;99.90;;;2.56;78.11;101885.22;10266268;28;96620;-78
2022/03/17 20:41:30;;;;;;;42.53;21.13;;;4.50;99.90;;;2.49;78.41;101895.19;10276294;28;96395;-78
2022/03/17 20:46:33;;;;;;;37.40;19.07;;;4.50;99.90;;;2.44;78.68;101889.28;10262413;28;96948;-78
2022/03/17 20:51:36;;;;;;;36.90;19.80;;;4.40;99.90;;;2.41;78.88;101892.09;10260488;28;96599;-79
2022/03/17 20:56:39;;;;;;;49.93;24.90;;;4.40;99.90;;;2.38;79.04;101898.31;10257607;28;96641;-79
2022/03/17 21:01:42;;;;;;;51.83;27.43;;;4.30;99.90;;;2.36;79.41;101897.53;10249321;28;96631;-78
2022/03/17 21:06:45;;;;;;;49.17;23.47;;;4.30;99.90;;;2.37;79.57;101907.09;10267499;28;97900;-80
2022/03/17 21:11:48;;;;;;;35.67;17.53;;;4.30;99.90;;;2.36;79.77;101908.03;10255482;28;96565;-80
2022/03/17 21:16:53;;;;;;;38.33;19.23;;;4.30;99.90;;;2.30;79.56;101912.72;10280300;28;97566;-79
2022/03/17 21:21:56;;;;;;;49.53;26.40;;;4.30;99.90;;;2.23;79.87;101906.94;10296054;28;96869;-79
2022/03/17 21:26:59;;;;;;;41.13;22.67;;;4.20;99.90;;;2.18;80.12;101916.78;10294632;28;96429;-79